Curvelo, Brazil
Current Conditions -  °F | °C
As of 10:00 PM on Saturday 24 Jan 2015 (Local Time) from SBLS Reporting Station
Light Rain Light Rain  
Wind Chill: 66°   Ceiling: 9000
Heat Index: 66°   Visibility: 5mi
Dew Point: 63°   Wind: 8mph
Humidity: 88%   Direction: 180°S
Pressure: 30.12"   Gusts: NA
Location:  18.76°S, 44.43°W
Report Text: SBLS 250000Z 18007KT 8000 -RA SCT030 BKN090 19/17 Q1020
Loading
Personal Weather Stations






























Interactive Weather Map New forecast layout! Learn more

10-Day Weather Forecast

Advertisements
Track Severe Weather on mobile